LAN127 SCFA-SCEL
Flight info
| Callsign | LAN127 |
|---|---|
| Flight time | 1h 25m |
| Altitude | 37000 |
| Route | UKATO3A UKATO UQ803 SIMOK SIMOK7B |
| Aircraft | A320/M-SDE3FGHIRWY/LB1 |
Departure
| Time | 2026-04-20 00:43 |
|---|---|
| Airport | Andrés Sabella Gálvez International Airport (SCFA) |
Arrival
| Time | 2026-04-20 02:09 |
|---|---|
| Airport | Comodoro Arturo Merino Benítez International Airport (SCEL) |
| Time | Latitude | Longitude | Altitude | Speed | Heading |
|---|---|---|---|---|---|
| 2026-04-20 00:17 | -23.44869 | -70.44184 | 462 ft | 0 kts | 96° |
| 2026-04-20 00:34 | -23.44868 | -70.44193 | 460 ft | 3 kts | 95° |
| 2026-04-20 00:34 | -23.44867 | -70.44215 | 457 ft | 3 kts | 88° |
| 2026-04-20 00:34 | -23.44869 | -70.44237 | 457 ft | 3 kts | 75° |
| 2026-04-20 00:35 | -23.44875 | -70.44256 | 461 ft | 3 kts | 44° |
| 2026-04-20 00:35 | -23.44886 | -70.44264 | 456 ft | 1 kts | 7° |
| 2026-04-20 00:35 | -23.44887 | -70.44264 | 457 ft | 0 kts | 7° |
| 2026-04-20 00:38 | -23.44837 | -70.44264 | 462 ft | 13 kts | 351° |
| 2026-04-20 00:39 | -23.44751 | -70.44289 | 462 ft | 13 kts | 345° |
| 2026-04-20 00:39 | -23.44691 | -70.44307 | 462 ft | 14 kts | 344° |
| 2026-04-20 00:39 | -23.44604 | -70.44334 | 462 ft | 14 kts | 345° |
| 2026-04-20 00:39 | -23.44481 | -70.44325 | 462 ft | 21 kts | 6° |
| 2026-04-20 00:40 | -23.44318 | -70.44305 | 462 ft | 25 kts | 6° |
| 2026-04-20 00:40 | -23.44139 | -70.44282 | 462 ft | 26 kts | 7° |
| 2026-04-20 00:40 | -23.43953 | -70.44259 | 462 ft | 26 kts | 6° |
| 2026-04-20 00:40 | -23.43770 | -70.44237 | 459 ft | 27 kts | 6° |
| 2026-04-20 00:41 | -23.43579 | -70.44212 | 459 ft | 28 kts | 7° |
| 2026-04-20 00:41 | -23.43405 | -70.44193 | 462 ft | 23 kts | 4° |
| 2026-04-20 00:41 | -23.43286 | -70.44269 | 462 ft | 13 kts | 316° |
| 2026-04-20 00:41 | -23.43284 | -70.44354 | 459 ft | 11 kts | 255° |
| 2026-04-20 00:42 | -23.43329 | -70.44376 | 461 ft | 0 kts | 184° |
| 2026-04-20 00:42 | -23.43343 | -70.44377 | 461 ft | 13 kts | 185° |
| 2026-04-20 00:42 | -23.43710 | -70.44423 | 464 ft | 89 kts | 186° |
| 2026-04-20 00:43 | -23.44535 | -70.44523 | 461 ft | 147 kts | 186° |
| 2026-04-20 00:43 | -23.45668 | -70.44648 | 648 ft | 176 kts | 184° |
| 2026-04-20 00:43 | -23.46893 | -70.44711 | 1344 ft | 177 kts | 179° |
| 2026-04-20 00:43 | -23.48190 | -70.44563 | 1763 ft | 198 kts | 171° |
| 2026-04-20 00:44 | -23.49622 | -70.44284 | 2087 ft | 218 kts | 169° |
| 2026-04-20 00:44 | -23.51191 | -70.43954 | 2466 ft | 242 kts | 169° |
| 2026-04-20 00:44 | -23.52917 | -70.43591 | 3017 ft | 260 kts | 169° |
| 2026-04-20 00:44 | -23.54725 | -70.43219 | 3827 ft | 268 kts | 169° |
| 2026-04-20 00:45 | -23.56577 | -70.42852 | 4687 ft | 274 kts | 170° |
| 2026-04-20 00:45 | -23.58474 | -70.42486 | 5482 ft | 280 kts | 170° |
| 2026-04-20 00:45 | -23.60414 | -70.42116 | 6276 ft | 286 kts | 170° |
| 2026-04-20 00:45 | -23.62391 | -70.41742 | 7021 ft | 291 kts | 170° |
| 2026-04-20 00:46 | -23.64409 | -70.41361 | 7775 ft | 296 kts | 170° |
| 2026-04-20 00:46 | -23.66459 | -70.40973 | 8517 ft | 302 kts | 170° |
| 2026-04-20 00:46 | -23.68546 | -70.40581 | 9269 ft | 307 kts | 170° |
| 2026-04-20 00:46 | -23.70666 | -70.40183 | 10000 ft | 312 kts | 170° |
| 2026-04-20 00:47 | -23.72874 | -70.39766 | 10302 ft | 334 kts | 170° |
| 2026-04-20 00:47 | -23.75232 | -70.39320 | 10612 ft | 352 kts | 170° |
| 2026-04-20 00:47 | -23.77668 | -70.38858 | 11213 ft | 358 kts | 170° |
| 2026-04-20 00:47 | -23.80144 | -70.38468 | 11879 ft | 362 kts | 177° |
| 2026-04-20 00:48 | -23.82671 | -70.38371 | 12572 ft | 365 kts | 179° |
| 2026-04-20 00:48 | -23.85191 | -70.38290 | 13260 ft | 369 kts | 179° |
| 2026-04-20 00:48 | -23.87764 | -70.38209 | 13945 ft | 372 kts | 180° |
| 2026-04-20 00:48 | -23.90363 | -70.38126 | 14563 ft | 375 kts | 180° |
| 2026-04-20 00:49 | -23.92979 | -70.38042 | 15197 ft | 377 kts | 180° |
| 2026-04-20 00:49 | -23.95607 | -70.37955 | 15826 ft | 379 kts | 181° |
| 2026-04-20 00:49 | -23.98248 | -70.37867 | 16452 ft | 381 kts | 181° |
| 2026-04-20 00:49 | -24.00904 | -70.37778 | 17094 ft | 383 kts | 181° |
| 2026-04-20 00:50 | -24.03583 | -70.37689 | 17731 ft | 385 kts | 182° |
| 2026-04-20 00:50 | -24.06271 | -70.37599 | 18356 ft | 388 kts | 182° |
| 2026-04-20 00:50 | -24.08977 | -70.37506 | 18867 ft | 391 kts | 182° |
| 2026-04-20 00:50 | -24.11709 | -70.37413 | 19334 ft | 395 kts | 182° |
| 2026-04-20 00:51 | -24.14471 | -70.37320 | 19796 ft | 399 kts | 182° |
| 2026-04-20 00:51 | -24.17260 | -70.37228 | 20248 ft | 403 kts | 182° |
| 2026-04-20 00:51 | -24.20081 | -70.37135 | 20676 ft | 408 kts | 182° |
| 2026-04-20 00:51 | -24.22935 | -70.37041 | 21134 ft | 412 kts | 182° |
| 2026-04-20 00:52 | -24.25811 | -70.36943 | 21584 ft | 416 kts | 182° |
| 2026-04-20 00:52 | -24.28718 | -70.36844 | 22031 ft | 420 kts | 182° |
| 2026-04-20 00:52 | -24.31652 | -70.36747 | 22469 ft | 424 kts | 182° |
| 2026-04-20 00:52 | -24.34624 | -70.36653 | 22941 ft | 428 kts | 182° |
| 2026-04-20 00:53 | -24.37618 | -70.36556 | 23384 ft | 432 kts | 182° |
| 2026-04-20 00:53 | -24.40636 | -70.36455 | 23792 ft | 436 kts | 182° |
| 2026-04-20 00:53 | -24.43682 | -70.36354 | 24171 ft | 439 kts | 182° |
| 2026-04-20 00:53 | -24.46745 | -70.36253 | 24573 ft | 442 kts | 183° |
| 2026-04-20 00:54 | -24.49826 | -70.36149 | 24960 ft | 444 kts | 183° |
| 2026-04-20 00:54 | -24.52926 | -70.36044 | 25344 ft | 447 kts | 183° |
| 2026-04-20 00:54 | -24.56045 | -70.35939 | 25693 ft | 450 kts | 183° |
| 2026-04-20 00:54 | -24.59180 | -70.35831 | 26073 ft | 452 kts | 183° |
| 2026-04-20 00:55 | -24.62331 | -70.35723 | 26405 ft | 454 kts | 183° |
| 2026-04-20 00:55 | -24.65498 | -70.35618 | 26805 ft | 455 kts | 183° |
| 2026-04-20 00:55 | -24.68668 | -70.35511 | 27169 ft | 457 kts | 183° |
| 2026-04-20 00:55 | -24.71854 | -70.35402 | 27545 ft | 459 kts | 183° |
| 2026-04-20 00:56 | -24.75053 | -70.35294 | 27910 ft | 461 kts | 183° |
| 2026-04-20 00:56 | -24.78230 | -70.35188 | 28252 ft | 463 kts | 183° |
| 2026-04-20 00:56 | -24.81460 | -70.35080 | 28592 ft | 466 kts | 184° |
| 2026-04-20 00:56 | -24.84706 | -70.34971 | 28937 ft | 468 kts | 184° |
| 2026-04-20 00:57 | -24.87972 | -70.34859 | 29267 ft | 471 kts | 184° |
| 2026-04-20 00:57 | -24.91259 | -70.34747 | 29600 ft | 473 kts | 184° |
| 2026-04-20 00:57 | -24.94553 | -70.34634 | 29958 ft | 474 kts | 183° |
| 2026-04-20 00:57 | -24.97855 | -70.34520 | 30297 ft | 475 kts | 183° |
| 2026-04-20 00:58 | -25.01165 | -70.34406 | 30565 ft | 477 kts | 183° |
| 2026-04-20 00:58 | -25.04489 | -70.34294 | 30814 ft | 479 kts | 184° |
| 2026-04-20 00:58 | -25.07829 | -70.34184 | 31067 ft | 481 kts | 184° |
| 2026-04-20 00:58 | -25.11188 | -70.34076 | 31317 ft | 483 kts | 184° |
| 2026-04-20 00:59 | -25.14547 | -70.33968 | 31660 ft | 482 kts | 184° |
| 2026-04-20 00:59 | -25.17902 | -70.33856 | 32010 ft | 482 kts | 184° |
| 2026-04-20 00:59 | -25.21249 | -70.33740 | 32360 ft | 481 kts | 184° |
| 2026-04-20 00:59 | -25.24548 | -70.33623 | 32745 ft | 480 kts | 184° |
| 2026-04-20 01:00 | -25.27886 | -70.33504 | 33075 ft | 480 kts | 184° |
| 2026-04-20 01:00 | -25.31230 | -70.33387 | 33416 ft | 480 kts | 184° |
| 2026-04-20 01:00 | -25.34568 | -70.33270 | 33739 ft | 480 kts | 185° |
| 2026-04-20 01:00 | -25.37907 | -70.33158 | 34061 ft | 480 kts | 185° |
| 2026-04-20 01:01 | -25.41243 | -70.33049 | 34343 ft | 480 kts | 185° |
| 2026-04-20 01:01 | -25.44578 | -70.32939 | 34620 ft | 479 kts | 185° |
| 2026-04-20 01:01 | -25.47914 | -70.32830 | 34890 ft | 479 kts | 185° |
| 2026-04-20 01:01 | -25.51241 | -70.32720 | 35197 ft | 478 kts | 185° |
| 2026-04-20 01:02 | -25.54571 | -70.32611 | 35425 ft | 479 kts | 185° |
| 2026-04-20 01:02 | -25.57904 | -70.32501 | 35661 ft | 479 kts | 185° |
| 2026-04-20 01:02 | -25.61236 | -70.32388 | 35912 ft | 479 kts | 185° |
| 2026-04-20 01:02 | -25.64570 | -70.32271 | 36149 ft | 479 kts | 186° |
| 2026-04-20 01:03 | -25.67902 | -70.32156 | 36395 ft | 479 kts | 186° |
| 2026-04-20 01:03 | -25.71225 | -70.32040 | 36633 ft | 478 kts | 186° |
| 2026-04-20 01:03 | -25.74556 | -70.31925 | 36859 ft | 478 kts | 186° |
| 2026-04-20 01:03 | -25.77880 | -70.31808 | 37028 ft | 479 kts | 186° |
| 2026-04-20 01:04 | -25.81200 | -70.31690 | 37090 ft | 477 kts | 186° |
| 2026-04-20 01:04 | -25.87816 | -70.31462 | 37066 ft | 476 kts | 186° |
| 2026-04-20 01:05 | -25.94436 | -70.31250 | 37061 ft | 476 kts | 186° |
| 2026-04-20 01:05 | -26.01056 | -70.31036 | 37062 ft | 476 kts | 186° |
| 2026-04-20 01:06 | -26.07658 | -70.30921 | 37065 ft | 469 kts | 193° |
| 2026-04-20 01:06 | -26.14158 | -70.31518 | 37079 ft | 468 kts | 193° |
| 2026-04-20 01:07 | -26.20659 | -70.32113 | 37076 ft | 469 kts | 193° |
| 2026-04-20 01:07 | -26.27168 | -70.32707 | 37075 ft | 469 kts | 193° |
| 2026-04-20 01:08 | -26.33634 | -70.33298 | 37074 ft | 469 kts | 193° |
| 2026-04-20 01:08 | -26.40144 | -70.33900 | 37107 ft | 469 kts | 193° |
| 2026-04-20 01:09 | -26.46652 | -70.34504 | 37090 ft | 469 kts | 193° |
| 2026-04-20 01:09 | -26.53161 | -70.35107 | 37082 ft | 470 kts | 193° |
| 2026-04-20 01:10 | -26.59677 | -70.35704 | 37081 ft | 470 kts | 193° |
| 2026-04-20 01:10 | -26.69447 | -70.36608 | 37109 ft | 470 kts | 193° |
| 2026-04-20 01:11 | -26.75965 | -70.37213 | 37089 ft | 470 kts | 193° |
| 2026-04-20 01:11 | -26.82477 | -70.37814 | 37076 ft | 469 kts | 193° |
| 2026-04-20 01:12 | -26.88959 | -70.38410 | 37077 ft | 470 kts | 193° |
| 2026-04-20 01:12 | -26.95481 | -70.39019 | 37077 ft | 470 kts | 193° |
| 2026-04-20 01:13 | -27.02009 | -70.39624 | 37076 ft | 470 kts | 193° |
| 2026-04-20 01:13 | -27.08535 | -70.40231 | 37078 ft | 470 kts | 193° |
| 2026-04-20 01:14 | -27.15057 | -70.40844 | 37078 ft | 470 kts | 193° |
| 2026-04-20 01:14 | -27.21577 | -70.41454 | 37075 ft | 470 kts | 193° |
| 2026-04-20 01:15 | -27.28096 | -70.42064 | 37102 ft | 470 kts | 194° |
| 2026-04-20 01:15 | -27.34613 | -70.42674 | 37089 ft | 470 kts | 194° |
| 2026-04-20 01:16 | -27.41138 | -70.43287 | 37091 ft | 470 kts | 194° |
| 2026-04-20 01:16 | -27.47615 | -70.43903 | 37086 ft | 470 kts | 194° |
| 2026-04-20 01:17 | -27.54148 | -70.44520 | 37104 ft | 470 kts | 194° |
| 2026-04-20 01:17 | -27.60691 | -70.45129 | 37095 ft | 470 kts | 194° |
| 2026-04-20 01:18 | -27.67182 | -70.45743 | 37088 ft | 470 kts | 194° |
| 2026-04-20 01:18 | -27.73710 | -70.46365 | 37083 ft | 470 kts | 194° |
| 2026-04-20 01:19 | -27.80244 | -70.46983 | 37082 ft | 470 kts | 194° |
| 2026-04-20 01:19 | -27.86740 | -70.47589 | 37090 ft | 470 kts | 194° |
| 2026-04-20 01:20 | -27.93264 | -70.48206 | 37086 ft | 469 kts | 194° |
| 2026-04-20 01:20 | -27.99745 | -70.48820 | 37081 ft | 470 kts | 194° |
| 2026-04-20 01:21 | -28.06263 | -70.49438 | 37081 ft | 470 kts | 194° |
| 2026-04-20 01:21 | -28.12791 | -70.50061 | 37109 ft | 469 kts | 193° |
| 2026-04-20 01:22 | -28.19268 | -70.50679 | 37096 ft | 469 kts | 193° |
| 2026-04-20 01:22 | -28.25779 | -70.51304 | 37090 ft | 469 kts | 193° |
| 2026-04-20 01:23 | -28.32292 | -70.51929 | 37092 ft | 469 kts | 193° |
| 2026-04-20 01:23 | -28.38765 | -70.52541 | 37085 ft | 469 kts | 193° |
| 2026-04-20 01:24 | -28.45286 | -70.53159 | 37097 ft | 468 kts | 193° |
| 2026-04-20 01:24 | -28.51774 | -70.53778 | 37094 ft | 468 kts | 193° |
| 2026-04-20 01:25 | -28.58235 | -70.54387 | 37103 ft | 468 kts | 193° |
| 2026-04-20 01:25 | -28.64736 | -70.54985 | 37101 ft | 467 kts | 193° |
| 2026-04-20 01:26 | -28.71218 | -70.55585 | 37121 ft | 466 kts | 193° |
| 2026-04-20 01:26 | -28.77643 | -70.56187 | 37114 ft | 466 kts | 193° |
| 2026-04-20 01:27 | -28.84100 | -70.56801 | 37109 ft | 465 kts | 193° |
| 2026-04-20 01:27 | -28.90551 | -70.57411 | 37105 ft | 465 kts | 193° |
| 2026-04-20 01:28 | -28.97012 | -70.58013 | 37139 ft | 465 kts | 193° |
| 2026-04-20 01:28 | -29.02367 | -70.58529 | 37123 ft | 464 kts | 193° |
| 2026-04-20 01:29 | -29.08811 | -70.59161 | 37129 ft | 465 kts | 193° |
| 2026-04-20 01:29 | -29.15251 | -70.59785 | 37126 ft | 464 kts | 193° |
| 2026-04-20 01:30 | -29.21687 | -70.60405 | 37126 ft | 464 kts | 193° |
| 2026-04-20 01:30 | -29.28120 | -70.61034 | 37124 ft | 464 kts | 193° |
| 2026-04-20 01:31 | -29.34545 | -70.61659 | 37119 ft | 463 kts | 193° |
| 2026-04-20 01:31 | -29.40968 | -70.62286 | 37115 ft | 462 kts | 193° |
| 2026-04-20 01:32 | -29.47379 | -70.62918 | 37107 ft | 462 kts | 193° |
| 2026-04-20 01:32 | -29.53791 | -70.63545 | 37135 ft | 462 kts | 193° |
| 2026-04-20 01:33 | -29.60203 | -70.64164 | 37126 ft | 462 kts | 193° |
| 2026-04-20 01:33 | -29.66616 | -70.64789 | 37117 ft | 462 kts | 193° |
| 2026-04-20 01:34 | -29.72988 | -70.65411 | 37108 ft | 462 kts | 193° |
| 2026-04-20 01:34 | -29.79400 | -70.66045 | 37107 ft | 462 kts | 193° |
| 2026-04-20 01:35 | -29.85817 | -70.66675 | 37107 ft | 462 kts | 193° |
| 2026-04-20 01:35 | -29.92224 | -70.67307 | 37110 ft | 462 kts | 193° |
| 2026-04-20 01:36 | -29.98624 | -70.67934 | 37104 ft | 462 kts | 193° |
| 2026-04-20 01:36 | -30.05029 | -70.68557 | 37099 ft | 462 kts | 193° |
| 2026-04-20 01:37 | -30.11436 | -70.69197 | 37120 ft | 462 kts | 193° |
| 2026-04-20 01:37 | -30.17837 | -70.69838 | 37111 ft | 462 kts | 193° |
| 2026-04-20 01:38 | -30.24251 | -70.70469 | 37104 ft | 462 kts | 193° |
| 2026-04-20 01:38 | -30.30658 | -70.71096 | 37108 ft | 462 kts | 193° |
| 2026-04-20 01:39 | -30.37072 | -70.71724 | 37117 ft | 462 kts | 194° |
| 2026-04-20 01:39 | -30.43466 | -70.72355 | 37105 ft | 461 kts | 194° |
| 2026-04-20 01:40 | -30.49862 | -70.73005 | 37103 ft | 461 kts | 194° |
| 2026-04-20 01:40 | -30.56261 | -70.73658 | 37101 ft | 462 kts | 194° |
| 2026-04-20 01:41 | -30.62660 | -70.74292 | 37127 ft | 462 kts | 194° |
| 2026-04-20 01:41 | -30.69021 | -70.74902 | 37070 ft | 459 kts | 194° |
| 2026-04-20 01:42 | -30.75384 | -70.75518 | 37079 ft | 461 kts | 194° |
| 2026-04-20 01:42 | -30.81784 | -70.76141 | 37084 ft | 462 kts | 194° |
| 2026-04-20 01:43 | -30.88192 | -70.76761 | 37138 ft | 462 kts | 194° |
| 2026-04-20 01:43 | -30.94585 | -70.77383 | 37086 ft | 459 kts | 194° |
| 2026-04-20 01:44 | -31.00957 | -70.78001 | 37068 ft | 459 kts | 194° |
| 2026-04-20 01:44 | -31.07323 | -70.78620 | 37074 ft | 461 kts | 194° |
| 2026-04-20 01:45 | -31.13731 | -70.79252 | 37086 ft | 462 kts | 194° |
| 2026-04-20 01:45 | -31.20134 | -70.79872 | 37116 ft | 462 kts | 194° |
| 2026-04-20 01:46 | -31.26548 | -70.80496 | 37105 ft | 462 kts | 195° |
| 2026-04-20 01:46 | -31.32908 | -70.81124 | 37100 ft | 463 kts | 194° |
| 2026-04-20 01:47 | -31.39334 | -70.81764 | 37117 ft | 463 kts | 194° |
| 2026-04-20 01:47 | -31.45764 | -70.82401 | 37140 ft | 466 kts | 193° |
| 2026-04-20 01:48 | -31.52252 | -70.83038 | 37105 ft | 467 kts | 194° |
| 2026-04-20 01:48 | -31.58696 | -70.83663 | 37057 ft | 462 kts | 194° |
| 2026-04-20 01:49 | -31.65121 | -70.84298 | 37057 ft | 464 kts | 194° |
| 2026-04-20 01:49 | -31.71568 | -70.84958 | 37068 ft | 465 kts | 195° |
| 2026-04-20 01:50 | -31.74759 | -70.85266 | 36489 ft | 471 kts | 192° |
| 2026-04-20 01:50 | -31.78076 | -70.85226 | 35555 ft | 480 kts | 188° |
| 2026-04-20 01:50 | -31.81445 | -70.85108 | 34314 ft | 487 kts | 187° |
| 2026-04-20 01:50 | -31.84828 | -70.84981 | 33215 ft | 486 kts | 187° |
| 2026-04-20 01:51 | -31.88196 | -70.84848 | 32277 ft | 481 kts | 187° |
| 2026-04-20 01:51 | -31.91517 | -70.84716 | 31369 ft | 474 kts | 187° |
| 2026-04-20 01:51 | -31.94787 | -70.84590 | 30542 ft | 467 kts | 187° |
| 2026-04-20 01:51 | -31.98010 | -70.84468 | 29638 ft | 460 kts | 187° |
| 2026-04-20 01:52 | -32.01183 | -70.84349 | 28720 ft | 453 kts | 187° |
| 2026-04-20 01:52 | -32.04312 | -70.84236 | 27819 ft | 446 kts | 187° |
| 2026-04-20 01:52 | -32.07398 | -70.84127 | 26948 ft | 440 kts | 187° |
| 2026-04-20 01:52 | -32.10435 | -70.84023 | 26100 ft | 433 kts | 187° |
| 2026-04-20 01:53 | -32.13426 | -70.83921 | 25267 ft | 427 kts | 187° |
| 2026-04-20 01:53 | -32.16376 | -70.83817 | 24428 ft | 421 kts | 186° |
| 2026-04-20 01:53 | -32.19289 | -70.83715 | 23668 ft | 414 kts | 186° |
| 2026-04-20 01:53 | -32.22135 | -70.83612 | 23020 ft | 403 kts | 186° |
| 2026-04-20 01:54 | -32.24897 | -70.83510 | 22463 ft | 392 kts | 186° |
| 2026-04-20 01:54 | -32.27587 | -70.83406 | 21926 ft | 382 kts | 186° |
| 2026-04-20 01:54 | -32.30200 | -70.83307 | 21410 ft | 371 kts | 186° |
| 2026-04-20 01:54 | -32.32743 | -70.83217 | 20895 ft | 361 kts | 186° |
| 2026-04-20 01:55 | -32.35229 | -70.83132 | 20418 ft | 353 kts | 186° |
| 2026-04-20 01:55 | -32.37665 | -70.83048 | 19930 ft | 347 kts | 186° |
| 2026-04-20 01:55 | -32.40067 | -70.82966 | 19454 ft | 345 kts | 185° |
| 2026-04-20 01:55 | -32.42486 | -70.82890 | 18975 ft | 351 kts | 185° |
| 2026-04-20 01:56 | -32.44948 | -70.82813 | 18487 ft | 356 kts | 185° |
| 2026-04-20 01:56 | -32.47408 | -70.82731 | 17953 ft | 361 kts | 184° |
| 2026-04-20 01:56 | -32.49917 | -70.82644 | 17451 ft | 360 kts | 183° |
| 2026-04-20 01:56 | -32.52416 | -70.82555 | 16958 ft | 358 kts | 182° |
| 2026-04-20 01:57 | -32.54901 | -70.82462 | 16493 ft | 357 kts | 182° |
| 2026-04-20 01:57 | -32.57394 | -70.82368 | 16124 ft | 358 kts | 182° |
| 2026-04-20 01:57 | -32.59871 | -70.82274 | 16048 ft | 355 kts | 182° |
| 2026-04-20 01:57 | -32.62333 | -70.82181 | 15546 ft | 354 kts | 182° |
| 2026-04-20 01:58 | -32.64791 | -70.82089 | 14898 ft | 353 kts | 182° |
| 2026-04-20 01:58 | -32.67234 | -70.81999 | 14186 ft | 350 kts | 181° |
| 2026-04-20 01:58 | -32.69658 | -70.81911 | 13604 ft | 345 kts | 181° |
| 2026-04-20 01:58 | -32.71995 | -70.81824 | 13372 ft | 327 kts | 181° |
| 2026-04-20 01:59 | -32.74231 | -70.81740 | 12992 ft | 317 kts | 182° |
| 2026-04-20 01:59 | -32.76421 | -70.81662 | 12738 ft | 314 kts | 181° |
| 2026-04-20 01:59 | -32.78608 | -70.81590 | 12484 ft | 314 kts | 181° |
| 2026-04-20 01:59 | -32.80791 | -70.81518 | 12093 ft | 317 kts | 181° |
| 2026-04-20 02:00 | -32.82992 | -70.81444 | 11884 ft | 314 kts | 181° |
| 2026-04-20 02:00 | -32.85167 | -70.81369 | 11574 ft | 313 kts | 181° |
| 2026-04-20 02:00 | -32.87342 | -70.81292 | 11264 ft | 312 kts | 181° |
| 2026-04-20 02:00 | -32.89502 | -70.81210 | 10917 ft | 309 kts | 180° |
| 2026-04-20 02:01 | -32.91641 | -70.81139 | 10399 ft | 306 kts | 184° |
| 2026-04-20 02:01 | -32.93740 | -70.81394 | 9870 ft | 302 kts | 190° |
| 2026-04-20 02:01 | -32.95811 | -70.81711 | 9329 ft | 298 kts | 189° |
| 2026-04-20 02:01 | -32.97854 | -70.82017 | 8824 ft | 293 kts | 189° |
| 2026-04-20 02:02 | -32.99859 | -70.82314 | 8314 ft | 288 kts | 187° |
| 2026-04-20 02:02 | -33.01846 | -70.82325 | 7787 ft | 283 kts | 177° |
| 2026-04-20 02:02 | -33.03799 | -70.82211 | 7274 ft | 279 kts | 177° |
| 2026-04-20 02:02 | -33.05716 | -70.82105 | 6780 ft | 273 kts | 177° |
| 2026-04-20 02:03 | -33.07597 | -70.81999 | 6313 ft | 267 kts | 177° |
| 2026-04-20 02:03 | -33.09429 | -70.81895 | 5819 ft | 261 kts | 177° |
| 2026-04-20 02:03 | -33.11220 | -70.81792 | 5454 ft | 254 kts | 177° |
| 2026-04-20 02:03 | -33.12911 | -70.81695 | 5381 ft | 235 kts | 177° |
| 2026-04-20 02:04 | -33.14514 | -70.81603 | 5306 ft | 232 kts | 177° |
| 2026-04-20 02:04 | -33.16123 | -70.81511 | 5213 ft | 231 kts | 177° |
| 2026-04-20 02:04 | -33.17724 | -70.81419 | 5116 ft | 230 kts | 177° |
| 2026-04-20 02:04 | -33.19320 | -70.81327 | 5027 ft | 226 kts | 177° |
| 2026-04-20 02:05 | -33.20882 | -70.81243 | 4751 ft | 224 kts | 177° |
| 2026-04-20 02:05 | -33.22407 | -70.81163 | 4450 ft | 215 kts | 178° |
| 2026-04-20 02:05 | -33.23866 | -70.81085 | 4169 ft | 205 kts | 178° |
| 2026-04-20 02:05 | -33.25262 | -70.81010 | 3924 ft | 194 kts | 178° |
| 2026-04-20 02:06 | -33.26572 | -70.80940 | 3658 ft | 183 kts | 179° |
| 2026-04-20 02:06 | -33.27787 | -70.80875 | 3446 ft | 165 kts | 179° |
| 2026-04-20 02:06 | -33.28877 | -70.80816 | 3217 ft | 150 kts | 179° |
| 2026-04-20 02:06 | -33.29887 | -70.80762 | 3027 ft | 141 kts | 179° |
| 2026-04-20 02:07 | -33.30855 | -70.80711 | 2844 ft | 137 kts | 177° |
| 2026-04-20 02:07 | -33.31803 | -70.80660 | 2663 ft | 136 kts | 176° |
| 2026-04-20 02:07 | -33.32748 | -70.80610 | 2479 ft | 136 kts | 175° |
| 2026-04-20 02:07 | -33.33698 | -70.80559 | 2295 ft | 137 kts | 175° |
| 2026-04-20 02:08 | -33.34647 | -70.80503 | 2106 ft | 136 kts | 175° |
| 2026-04-20 02:08 | -33.35579 | -70.80441 | 1930 ft | 136 kts | 176° |
| 2026-04-20 02:08 | -33.36517 | -70.80408 | 1768 ft | 135 kts | 176° |
| 2026-04-20 02:08 | -33.37452 | -70.80358 | 1587 ft | 134 kts | 176° |
| 2026-04-20 02:09 | -33.38269 | -70.80313 | 1573 ft | 92 kts | 177° |
| 2026-04-20 02:09 | -33.38634 | -70.80296 | 1574 ft | 30 kts | 178° |
| 2026-04-20 02:09 | -33.38835 | -70.80284 | 1574 ft | 28 kts | 177° |
| 2026-04-20 02:09 | -33.39028 | -70.80273 | 1574 ft | 27 kts | 177° |
| 2026-04-20 02:10 | -33.39212 | -70.80256 | 1573 ft | 26 kts | 168° |
| 2026-04-20 02:10 | -33.39359 | -70.80179 | 1570 ft | 21 kts | 146° |
| 2026-04-20 02:10 | -33.39471 | -70.80091 | 1567 ft | 19 kts | 143° |
| 2026-04-20 02:10 | -33.39530 | -70.79948 | 1567 ft | 21 kts | 96° |
| 2026-04-20 02:11 | -33.39525 | -70.79775 | 1565 ft | 21 kts | 88° |
| 2026-04-20 02:11 | -33.39517 | -70.79595 | 1564 ft | 22 kts | 86° |
| 2026-04-20 02:11 | -33.39509 | -70.79404 | 1564 ft | 24 kts | 88° |
| 2026-04-20 02:11 | -33.39504 | -70.79200 | 1564 ft | 24 kts | 88° |
| 2026-04-20 02:12 | -33.39495 | -70.79043 | 1564 ft | 16 kts | 88° |
| 2026-04-20 02:12 | -33.39495 | -70.78967 | 1564 ft | 1 kts | 118° |
| 2026-04-20 02:12 | -33.39506 | -70.78965 | 1564 ft | 2 kts | 171° |
| 2026-04-20 02:12 | -33.39541 | -70.78964 | 1564 ft | 5 kts | 182° |
| 2026-04-20 02:13 | -33.39568 | -70.78966 | 1564 ft | 0 kts | 183° |